createdAt,value
2023-10-10T00:04:56.961Z,17.66
2023-10-10T00:10:00.878Z,17.59
2023-10-10T00:15:06.687Z,17.51
2023-10-10T00:20:17.522Z,17.42
2023-10-10T00:25:20.219Z,17.26
2023-10-10T00:30:23.667Z,17.12
2023-10-10T00:35:28.308Z,17.09
2023-10-10T00:40:34.410Z,16.99
2023-10-10T00:45:37.292Z,16.87
2023-10-10T00:50:44.225Z,16.83
2023-10-10T00:55:53.297Z,16.74
2023-10-10T01:00:56.357Z,16.69
2023-10-10T01:05:59.260Z,16.64
2023-10-10T01:11:04.983Z,16.52
2023-10-10T01:16:07.086Z,16.52
2023-10-10T01:21:10.128Z,16.41
2023-10-10T01:26:11.598Z,16.39
2023-10-10T01:31:18.876Z,16.37
2023-10-10T01:36:20.918Z,16.32
2023-10-10T01:41:24.519Z,16.21
2023-10-10T01:46:29.034Z,16.16
2023-10-10T01:51:34.423Z,16.09
2023-10-10T01:56:39.530Z,15.99
2023-10-10T02:01:42.742Z,15.94
2023-10-10T02:06:47.076Z,15.90
2023-10-10T02:11:51.788Z,15.87
2023-10-10T02:16:56.445Z,15.82
2023-10-10T02:22:23.845Z,15.72
2023-10-10T02:27:33.971Z,15.66
2023-10-10T02:32:36.629Z,15.70
2023-10-10T02:37:48.329Z,15.67
2023-10-10T02:43:11.518Z,15.66
2023-10-10T02:48:21.419Z,15.62
2023-10-10T02:53:23.450Z,15.56
2023-10-10T02:58:29.134Z,15.52
2023-10-10T03:03:30.690Z,15.50
2023-10-10T03:08:34.889Z,15.43
2023-10-10T03:13:43.621Z,15.40
2023-10-10T03:19:15.005Z,15.36
2023-10-10T03:24:23.634Z,15.33
2023-10-10T03:29:38.022Z,15.24
2023-10-10T03:34:46.125Z,15.13
2023-10-10T03:39:55.087Z,15.13
2023-10-10T03:45:15.377Z,15.11
2023-10-10T03:50:35.335Z,15.06
2023-10-10T03:55:56.475Z,15.01
2023-10-10T04:01:16.328Z,14.97
2023-10-10T04:06:36.542Z,14.91
2023-10-10T04:11:56.758Z,14.86
2023-10-10T04:17:16.995Z,14.82
2023-10-10T04:22:37.092Z,14.81
2023-10-10T04:27:56.808Z,14.76
2023-10-10T04:33:16.738Z,14.74
2023-10-10T04:38:36.639Z,14.68
2023-10-10T04:43:56.682Z,14.62
2023-10-10T04:49:16.387Z,14.53
2023-10-10T04:54:36.290Z,14.48
2023-10-10T04:59:56.224Z,14.45
2023-10-10T05:05:16.304Z,14.42
2023-10-10T05:10:36.548Z,14.38
2023-10-10T05:15:56.680Z,14.39
2023-10-10T05:21:16.545Z,14.35
2023-10-10T05:26:20.456Z,14.35
2023-10-10T05:31:22.820Z,14.32
2023-10-10T05:36:25.174Z,14.30
2023-10-10T05:41:26.663Z,14.33
2023-10-10T05:46:28.199Z,14.36
2023-10-10T05:51:30.959Z,14.38
2023-10-10T05:56:36.057Z,14.35
2023-10-10T06:01:38.711Z,14.33
2023-10-10T06:06:41.891Z,14.38
2023-10-10T06:11:45.107Z,14.35
2023-10-10T06:16:46.594Z,14.45
2023-10-10T06:21:48.059Z,14.45
2023-10-10T06:26:50.612Z,14.54
2023-10-10T06:31:52.054Z,14.62
2023-10-10T06:36:55.530Z,14.66
2023-10-10T06:41:58.292Z,14.76
2023-10-10T06:47:01.860Z,14.87
2023-10-10T06:52:03.383Z,14.99
2023-10-10T06:57:04.756Z,15.05
2023-10-10T07:02:20.920Z,15.13
2023-10-10T07:07:23.094Z,15.18
2023-10-10T07:12:25.381Z,15.30
2023-10-10T07:17:29.727Z,15.41
2023-10-10T07:22:35.746Z,15.50
2023-10-10T07:27:42.468Z,15.73
2023-10-10T07:32:49.732Z,15.95
2023-10-10T07:37:53.644Z,16.15
2023-10-10T07:43:00.527Z,16.31
2023-10-10T07:48:02.266Z,16.56
2023-10-10T07:53:07.018Z,16.74
2023-10-10T07:58:11.664Z,16.89
2023-10-10T08:03:20.385Z,17.02
2023-10-10T08:08:26.140Z,17.18
2023-10-10T08:13:29.828Z,17.33
2023-10-10T08:18:43.406Z,17.54
2023-10-10T08:23:47.280Z,17.60
2023-10-10T08:28:50.085Z,17.57
2023-10-10T08:33:51.504Z,17.69
2023-10-10T08:38:54.472Z,17.91
2023-10-10T08:43:59.388Z,18.14
2023-10-10T08:49:05.779Z,18.28
2023-10-10T08:54:13.830Z,18.50
2023-10-10T08:59:18.999Z,18.65
2023-10-10T09:04:21.579Z,18.81
2023-10-10T09:09:41.697Z,19.00
2023-10-10T09:14:45.046Z,19.26
2023-10-10T09:19:48.047Z,19.48
2023-10-10T09:24:50.741Z,19.66
2023-10-10T09:29:57.229Z,19.88
2023-10-10T09:34:59.271Z,19.95
2023-10-10T09:40:06.076Z,20.06
2023-10-10T09:45:46.633Z,20.13
2023-10-10T09:51:08.069Z,20.25
2023-10-10T09:56:10.870Z,20.27
2023-10-10T10:01:24.100Z,20.38
2023-10-10T10:06:52.423Z,20.63
2023-10-10T10:12:34.171Z,20.79
2023-10-10T10:17:55.441Z,20.95
2023-10-10T10:23:01.276Z,21.04
2023-10-10T10:28:11.619Z,21.28
2023-10-10T10:33:13.323Z,21.35
2023-10-10T10:38:18.311Z,21.46
2023-10-10T10:43:22.946Z,21.57
2023-10-10T10:48:31.068Z,21.69
2023-10-10T10:53:39.996Z,21.96
2023-10-10T10:58:56.626Z,21.97
2023-10-10T11:03:58.065Z,22.06
2023-10-10T11:09:25.416Z,22.29
2023-10-10T11:14:30.216Z,22.46
2023-10-10T11:19:32.359Z,22.54
2023-10-10T11:24:35.711Z,22.61
2023-10-10T11:30:01.702Z,22.62
2023-10-10T11:35:33.944Z,22.85
2023-10-10T11:40:37.699Z,23.30
2023-10-10T11:45:41.779Z,23.67
2023-10-10T11:50:52.255Z,23.85
2023-10-10T11:55:55.572Z,23.96
2023-10-10T12:01:09.411Z,24.17
2023-10-10T12:06:15.366Z,24.04
2023-10-10T12:11:21.421Z,23.95
2023-10-10T12:16:26.273Z,24.06
2023-10-10T12:21:27.982Z,24.33
2023-10-10T12:26:30.983Z,24.25
2023-10-10T12:31:35.678Z,24.18
2023-10-10T12:36:37.748Z,24.30
2023-10-10T12:41:47.145Z,24.41
2023-10-10T12:46:48.676Z,24.38
2023-10-10T12:51:50.163Z,24.24
2023-10-10T12:56:59.426Z,24.33
2023-10-10T13:02:05.015Z,24.62
2023-10-10T13:07:06.654Z,24.57
2023-10-10T13:12:08.081Z,24.53
2023-10-10T13:17:31.465Z,24.87
2023-10-10T13:22:33.265Z,25.04
2023-10-10T13:27:34.686Z,25.13
2023-10-10T13:32:36.125Z,25.49
2023-10-10T13:37:42.151Z,25.47
2023-10-10T13:42:43.574Z,25.32
2023-10-10T13:47:49.253Z,25.60
2023-10-10T13:52:50.896Z,25.72
2023-10-10T13:57:54.687Z,25.92
2023-10-10T14:03:04.505Z,26.02
2023-10-10T14:08:18.816Z,26.17
2023-10-10T14:13:20.917Z,26.19
2023-10-10T14:18:24.583Z,26.24
2023-10-10T14:23:26.323Z,26.45
2023-10-10T14:28:29.449Z,26.45
2023-10-10T14:33:30.887Z,26.56
2023-10-10T14:38:32.989Z,26.61
2023-10-10T14:43:35.252Z,26.67
2023-10-10T14:48:36.678Z,26.95
2023-10-10T14:53:39.030Z,26.85
2023-10-10T14:58:40.466Z,26.87
2023-10-10T15:03:42.763Z,26.97
2023-10-10T15:08:46.958Z,27.00
2023-10-10T15:13:49.036Z,26.76
2023-10-10T15:18:54.426Z,26.48
2023-10-10T15:23:56.348Z,26.75
2023-10-10T15:28:58.479Z,26.49
2023-10-10T15:33:59.860Z,26.31
2023-10-10T15:39:09.587Z,26.33
2023-10-10T15:44:13.364Z,26.31
2023-10-10T15:54:20.239Z,26.30
2023-10-10T15:59:21.732Z,25.98
2023-10-10T16:04:24.880Z,25.71
2023-10-10T16:09:32.183Z,25.43
2023-10-10T16:14:37.829Z,25.11
2023-10-10T16:19:43.130Z,24.85
2023-10-10T16:24:44.706Z,24.55
2023-10-10T16:29:46.907Z,24.27
2023-10-10T16:34:48.638Z,24.00
2023-10-10T16:39:50.807Z,23.76
2023-10-10T16:44:54.565Z,23.44
2023-10-10T16:49:56.425Z,23.15
2023-10-10T16:54:58.372Z,22.85
2023-10-10T16:59:59.935Z,22.58
2023-10-10T17:05:02.355Z,22.32
2023-10-10T17:10:07.074Z,22.11
2023-10-10T17:15:15.274Z,21.85
2023-10-10T17:20:19.497Z,21.64
2023-10-10T17:25:20.962Z,21.41
2023-10-10T17:30:22.812Z,21.21
2023-10-10T17:35:24.296Z,21.03
2023-10-10T17:40:25.842Z,20.82
2023-10-10T17:45:27.304Z,20.67
2023-10-10T17:50:32.038Z,20.48
2023-10-10T17:55:36.068Z,20.27
2023-10-10T18:00:37.791Z,20.13
2023-10-10T18:05:40.686Z,19.95
2023-10-10T18:10:43.164Z,19.83
2023-10-10T18:15:47.475Z,19.69
2023-10-10T18:20:50.245Z,19.57
2023-10-10T18:25:51.874Z,19.44
2023-10-10T18:30:53.494Z,19.32
2023-10-10T18:35:55.568Z,19.19
2023-10-10T18:40:58.071Z,19.05
2023-10-10T18:46:01.646Z,18.93
2023-10-10T18:51:04.148Z,18.81
2023-10-10T18:56:06.728Z,18.70
2023-10-10T19:01:12.606Z,18.58
2023-10-10T19:06:15.216Z,18.49
2023-10-10T19:11:24.514Z,18.38
2023-10-10T19:16:26.314Z,18.28
2023-10-10T19:21:31.725Z,18.17
2023-10-10T19:26:35.053Z,18.08
2023-10-10T19:31:41.626Z,17.99
2023-10-10T19:36:44.220Z,17.92
2023-10-10T19:41:45.932Z,17.81
2023-10-10T19:46:47.754Z,17.71
2023-10-10T19:51:50.462Z,17.61
2023-10-10T19:56:52.086Z,17.53
2023-10-10T20:01:53.813Z,17.46
2023-10-10T20:06:55.747Z,17.41
2023-10-10T20:11:58.005Z,17.34
2023-10-10T20:16:59.649Z,17.31
2023-10-10T20:22:01.183Z,17.25
2023-10-10T20:27:05.070Z,17.18
2023-10-10T20:32:07.752Z,17.16
2023-10-10T20:37:11.191Z,17.12
2023-10-10T20:42:12.579Z,17.08
2023-10-10T20:47:13.971Z,17.07
2023-10-10T20:52:16.658Z,17.15
2023-10-10T20:57:18.035Z,17.20
2023-10-10T21:02:19.401Z,17.24
2023-10-10T21:07:20.790Z,17.36
2023-10-10T21:12:22.327Z,17.48
2023-10-10T21:17:24.420Z,17.60
2023-10-10T21:22:28.342Z,17.69
2023-10-10T21:27:29.777Z,17.78
2023-10-10T21:32:31.483Z,17.86
2023-10-10T21:37:33.041Z,17.95
2023-10-10T21:42:34.447Z,18.01
2023-10-10T21:47:36.047Z,18.07
2023-10-10T21:52:39.450Z,18.15
2023-10-10T21:57:41.666Z,18.20
2023-10-10T22:02:45.433Z,18.23
2023-10-10T22:07:48.052Z,18.29
2023-10-10T22:12:51.871Z,18.35
2023-10-10T22:17:57.914Z,18.45
2023-10-10T22:22:59.711Z,18.48
2023-10-10T22:28:02.190Z,18.49
2023-10-10T22:33:04.911Z,18.45
2023-10-10T22:38:06.884Z,18.42
2023-10-10T22:43:11.317Z,18.34
2023-10-10T22:48:15.621Z,18.27
2023-10-10T22:53:17.896Z,18.23
2023-10-10T22:58:21.354Z,18.17
2023-10-10T23:03:24.259Z,18.11
2023-10-10T23:08:26.167Z,18.03
2023-10-10T23:13:27.576Z,18.05
2023-10-10T23:18:29.103Z,18.10
2023-10-10T23:23:30.590Z,18.05
2023-10-10T23:28:32.993Z,18.01
2023-10-10T23:33:34.442Z,17.99
2023-10-10T23:38:36.038Z,17.90
2023-10-10T23:43:38.296Z,17.87
2023-10-10T23:48:40.778Z,17.88
2023-10-10T23:53:42.258Z,17.87
2023-10-10T23:58:44.256Z,17.84
